sensor_id;sensor_type;location;lat;lon;timestamp;P1;durP1;ratioP1;P2;durP2;ratioP2
15297;SDS011;7750;48.796;9.026;2023-05-19T00:03:33;7.37;;;2.83;;
15297;SDS011;7750;48.796;9.026;2023-05-19T00:08:36;7.80;;;2.87;;
15297;SDS011;7750;48.796;9.026;2023-05-19T00:13:37;9.40;;;4.17;;
15297;SDS011;7750;48.796;9.026;2023-05-19T00:18:38;7.80;;;3.13;;
15297;SDS011;7750;48.796;9.026;2023-05-19T00:23:39;5.83;;;3.20;;
15297;SDS011;7750;48.796;9.026;2023-05-19T00:28:40;15.23;;;4.30;;
15297;SDS011;7750;48.796;9.026;2023-05-19T00:33:40;5.83;;;3.00;;
15297;SDS011;7750;48.796;9.026;2023-05-19T00:38:41;10.63;;;3.57;;
15297;SDS011;7750;48.796;9.026;2023-05-19T00:43:42;9.20;;;3.30;;
15297;SDS011;7750;48.796;9.026;2023-05-19T00:48:42;8.57;;;3.03;;
15297;SDS011;7750;48.796;9.026;2023-05-19T00:53:44;4.20;;;2.77;;
15297;SDS011;7750;48.796;9.026;2023-05-19T00:58:50;5.93;;;3.33;;
15297;SDS011;7750;48.796;9.026;2023-05-19T01:03:51;6.10;;;2.87;;
15297;SDS011;7750;48.796;9.026;2023-05-19T01:08:52;4.57;;;2.63;;
15297;SDS011;7750;48.796;9.026;2023-05-19T01:13:53;5.60;;;2.70;;
15297;SDS011;7750;48.796;9.026;2023-05-19T01:19:06;4.87;;;3.00;;
15297;SDS011;7750;48.796;9.026;2023-05-19T01:35:28;5.80;;;2.70;;
15297;SDS011;7750;48.796;9.026;2023-05-19T01:40:31;4.57;;;2.53;;
15297;SDS011;7750;48.796;9.026;2023-05-19T01:45:32;4.13;;;2.47;;
15297;SDS011;7750;48.796;9.026;2023-05-19T01:50:33;6.93;;;2.70;;
15297;SDS011;7750;48.796;9.026;2023-05-19T01:55:35;3.60;;;2.40;;
15297;SDS011;7750;48.796;9.026;2023-05-19T02:00:52;7.23;;;3.27;;
15297;SDS011;7750;48.796;9.026;2023-05-19T02:11:39;4.67;;;2.40;;
15297;SDS011;7750;48.796;9.026;2023-05-19T02:16:42;6.47;;;2.77;;
15297;SDS011;7750;48.796;9.026;2023-05-19T02:21:46;7.50;;;3.13;;
15297;SDS011;7750;48.796;9.026;2023-05-19T02:26:47;5.67;;;3.13;;
15297;SDS011;7750;48.796;9.026;2023-05-19T02:31:51;8.30;;;2.90;;
15297;SDS011;7750;48.796;9.026;2023-05-19T02:36:52;4.80;;;2.70;;
15297;SDS011;7750;48.796;9.026;2023-05-19T02:41:52;7.70;;;3.50;;
15297;SDS011;7750;48.796;9.026;2023-05-19T02:46:53;4.77;;;3.07;;
15297;SDS011;7750;48.796;9.026;2023-05-19T02:51:54;4.87;;;2.90;;
15297;SDS011;7750;48.796;9.026;2023-05-19T02:56:54;5.70;;;2.80;;
15297;SDS011;7750;48.796;9.026;2023-05-19T03:01:58;5.17;;;2.70;;
15297;SDS011;7750;48.796;9.026;2023-05-19T03:07:00;4.80;;;2.90;;
15297;SDS011;7750;48.796;9.026;2023-05-19T03:12:01;7.93;;;2.87;;
15297;SDS011;7750;48.796;9.026;2023-05-19T03:17:03;7.87;;;2.33;;
15297;SDS011;7750;48.796;9.026;2023-05-19T03:22:06;5.63;;;2.87;;
15297;SDS011;7750;48.796;9.026;2023-05-19T03:27:07;4.90;;;2.30;;
15297;SDS011;7750;48.796;9.026;2023-05-19T03:32:07;4.83;;;2.50;;
15297;SDS011;7750;48.796;9.026;2023-05-19T03:37:08;6.40;;;2.30;;
15297;SDS011;7750;48.796;9.026;2023-05-19T03:42:09;6.80;;;3.10;;
15297;SDS011;7750;48.796;9.026;2023-05-19T03:47:28;6.33;;;3.30;;
15297;SDS011;7750;48.796;9.026;2023-05-19T03:52:31;5.60;;;2.60;;
15297;SDS011;7750;48.796;9.026;2023-05-19T03:57:32;3.90;;;2.43;;
15297;SDS011;7750;48.796;9.026;2023-05-19T04:02:33;5.70;;;2.97;;
15297;SDS011;7750;48.796;9.026;2023-05-19T04:07:39;9.93;;;2.70;;
15297;SDS011;7750;48.796;9.026;2023-05-19T04:12:50;7.60;;;2.73;;
15297;SDS011;7750;48.796;9.026;2023-05-19T04:17:50;3.50;;;2.80;;
15297;SDS011;7750;48.796;9.026;2023-05-19T04:22:51;3.30;;;2.73;;
15297;SDS011;7750;48.796;9.026;2023-05-19T04:27:52;8.70;;;3.17;;
15297;SDS011;7750;48.796;9.026;2023-05-19T04:32:56;6.30;;;3.43;;
15297;SDS011;7750;48.796;9.026;2023-05-19T04:37:58;4.20;;;2.83;;
15297;SDS011;7750;48.796;9.026;2023-05-19T04:42:58;3.00;;;2.20;;
15297;SDS011;7750;48.796;9.026;2023-05-19T04:48:01;6.23;;;3.23;;
15297;SDS011;7750;48.796;9.026;2023-05-19T04:53:01;4.10;;;2.80;;
15297;SDS011;7750;48.796;9.026;2023-05-19T04:58:02;5.07;;;2.83;;
15297;SDS011;7750;48.796;9.026;2023-05-19T05:03:03;5.93;;;2.60;;
15297;SDS011;7750;48.796;9.026;2023-05-19T05:08:04;8.00;;;3.00;;
15297;SDS011;7750;48.796;9.026;2023-05-19T05:13:05;6.20;;;2.87;;
15297;SDS011;7750;48.796;9.026;2023-05-19T05:18:06;4.30;;;2.93;;
15297;SDS011;7750;48.796;9.026;2023-05-19T05:23:07;5.83;;;2.70;;
15297;SDS011;7750;48.796;9.026;2023-05-19T05:28:08;5.93;;;3.30;;
15297;SDS011;7750;48.796;9.026;2023-05-19T05:33:09;7.77;;;3.20;;
15297;SDS011;7750;48.796;9.026;2023-05-19T05:38:10;5.27;;;2.80;;
15297;SDS011;7750;48.796;9.026;2023-05-19T05:43:11;9.10;;;3.60;;
15297;SDS011;7750;48.796;9.026;2023-05-19T05:48:12;5.23;;;2.80;;
15297;SDS011;7750;48.796;9.026;2023-05-19T05:53:15;7.97;;;3.30;;
15297;SDS011;7750;48.796;9.026;2023-05-19T05:58:18;6.07;;;3.07;;
15297;SDS011;7750;48.796;9.026;2023-05-19T06:03:20;5.10;;;2.60;;
15297;SDS011;7750;48.796;9.026;2023-05-19T06:08:23;8.40;;;3.83;;
15297;SDS011;7750;48.796;9.026;2023-05-19T06:13:23;4.67;;;2.73;;
15297;SDS011;7750;48.796;9.026;2023-05-19T06:18:25;8.47;;;3.60;;
15297;SDS011;7750;48.796;9.026;2023-05-19T06:23:29;11.67;;;3.10;;
15297;SDS011;7750;48.796;9.026;2023-05-19T06:28:30;8.80;;;3.40;;
15297;SDS011;7750;48.796;9.026;2023-05-19T06:33:31;9.37;;;3.50;;
15297;SDS011;7750;48.796;9.026;2023-05-19T06:38:32;4.30;;;2.90;;
15297;SDS011;7750;48.796;9.026;2023-05-19T06:43:36;5.17;;;3.27;;
15297;SDS011;7750;48.796;9.026;2023-05-19T06:48:39;5.77;;;3.17;;
15297;SDS011;7750;48.796;9.026;2023-05-19T06:53:40;10.93;;;3.40;;
15297;SDS011;7750;48.796;9.026;2023-05-19T06:58:41;7.40;;;3.60;;
15297;SDS011;7750;48.796;9.026;2023-05-19T07:03:42;7.40;;;3.07;;
15297;SDS011;7750;48.796;9.026;2023-05-19T07:08:46;5.50;;;3.43;;
15297;SDS011;7750;48.796;9.026;2023-05-19T07:13:50;5.70;;;3.13;;
15297;SDS011;7750;48.796;9.026;2023-05-19T07:18:50;6.23;;;3.40;;
15297;SDS011;7750;48.796;9.026;2023-05-19T07:24:08;7.83;;;4.50;;
15297;SDS011;7750;48.796;9.026;2023-05-19T07:29:09;8.07;;;3.83;;
15297;SDS011;7750;48.796;9.026;2023-05-19T07:34:10;7.70;;;3.47;;
15297;SDS011;7750;48.796;9.026;2023-05-19T07:39:11;7.90;;;3.43;;
15297;SDS011;7750;48.796;9.026;2023-05-19T07:44:13;8.53;;;4.00;;
15297;SDS011;7750;48.796;9.026;2023-05-19T07:49:23;5.93;;;3.60;;
15297;SDS011;7750;48.796;9.026;2023-05-19T07:54:24;6.30;;;3.53;;
15297;SDS011;7750;48.796;9.026;2023-05-19T07:59:24;7.83;;;3.60;;
15297;SDS011;7750;48.796;9.026;2023-05-19T08:04:25;9.13;;;4.00;;
15297;SDS011;7750;48.796;9.026;2023-05-19T08:09:26;5.83;;;3.50;;
15297;SDS011;7750;48.796;9.026;2023-05-19T08:14:30;5.70;;;3.77;;
15297;SDS011;7750;48.796;9.026;2023-05-19T08:19:32;5.73;;;3.27;;
15297;SDS011;7750;48.796;9.026;2023-05-19T08:24:32;9.90;;;3.80;;
15297;SDS011;7750;48.796;9.026;2023-05-19T08:29:33;6.53;;;3.73;;
15297;SDS011;7750;48.796;9.026;2023-05-19T08:34:35;7.63;;;3.67;;
15297;SDS011;7750;48.796;9.026;2023-05-19T08:39:36;9.60;;;3.80;;
15297;SDS011;7750;48.796;9.026;2023-05-19T08:44:37;7.10;;;3.70;;
15297;SDS011;7750;48.796;9.026;2023-05-19T08:49:41;11.43;;;4.67;;
15297;SDS011;7750;48.796;9.026;2023-05-19T08:55:03;6.37;;;3.63;;
15297;SDS011;7750;48.796;9.026;2023-05-19T09:00:08;7.63;;;3.70;;
15297;SDS011;7750;48.796;9.026;2023-05-19T09:05:12;11.27;;;4.20;;
15297;SDS011;7750;48.796;9.026;2023-05-19T09:10:14;6.47;;;3.37;;
15297;SDS011;7750;48.796;9.026;2023-05-19T09:15:16;8.00;;;4.33;;
15297;SDS011;7750;48.796;9.026;2023-05-19T09:20:19;9.10;;;3.90;;
15297;SDS011;7750;48.796;9.026;2023-05-19T09:25:23;9.07;;;3.37;;
15297;SDS011;7750;48.796;9.026;2023-05-19T09:30:25;26.50;;;3.70;;
15297;SDS011;7750;48.796;9.026;2023-05-19T09:35:25;5.20;;;3.17;;
15297;SDS011;7750;48.796;9.026;2023-05-19T09:40:26;6.57;;;3.60;;
15297;SDS011;7750;48.796;9.026;2023-05-19T09:45:27;8.47;;;3.30;;
15297;SDS011;7750;48.796;9.026;2023-05-19T09:50:28;6.60;;;3.90;;
15297;SDS011;7750;48.796;9.026;2023-05-19T09:55:30;7.23;;;3.67;;
15297;SDS011;7750;48.796;9.026;2023-05-19T10:00:31;9.13;;;4.07;;
15297;SDS011;7750;48.796;9.026;2023-05-19T10:05:33;7.20;;;3.83;;
15297;SDS011;7750;48.796;9.026;2023-05-19T10:10:34;9.63;;;3.50;;
15297;SDS011;7750;48.796;9.026;2023-05-19T10:15:36;8.53;;;3.40;;
15297;SDS011;7750;48.796;9.026;2023-05-19T10:20:39;5.70;;;3.90;;
15297;SDS011;7750;48.796;9.026;2023-05-19T10:25:41;9.57;;;3.37;;
15297;SDS011;7750;48.796;9.026;2023-05-19T10:30:46;5.30;;;3.03;;
15297;SDS011;7750;48.796;9.026;2023-05-19T10:46:42;5.90;;;3.20;;
15297;SDS011;7750;48.796;9.026;2023-05-19T10:51:43;6.63;;;3.53;;
15297;SDS011;7750;48.796;9.026;2023-05-19T10:56:45;7.40;;;3.53;;
15297;SDS011;7750;48.796;9.026;2023-05-19T11:01:46;7.90;;;3.33;;
15297;SDS011;7750;48.796;9.026;2023-05-19T11:06:49;9.50;;;4.43;;
15297;SDS011;7750;48.796;9.026;2023-05-19T11:11:51;7.43;;;3.93;;
15297;SDS011;7750;48.796;9.026;2023-05-19T11:16:56;8.60;;;3.20;;
15297;SDS011;7750;48.796;9.026;2023-05-19T11:22:10;7.90;;;3.53;;
15297;SDS011;7750;48.796;9.026;2023-05-19T11:27:34;5.43;;;3.17;;
15297;SDS011;7750;48.796;9.026;2023-05-19T11:32:36;5.70;;;3.43;;
15297;SDS011;7750;48.796;9.026;2023-05-19T11:37:41;5.40;;;2.80;;
15297;SDS011;7750;48.796;9.026;2023-05-19T11:42:42;8.40;;;4.17;;
15297;SDS011;7750;48.796;9.026;2023-05-19T11:47:44;6.73;;;4.07;;
15297;SDS011;7750;48.796;9.026;2023-05-19T11:52:45;8.40;;;3.67;;
15297;SDS011;7750;48.796;9.026;2023-05-19T11:58:04;7.30;;;3.90;;
15297;SDS011;7750;48.796;9.026;2023-05-19T12:03:05;7.87;;;4.00;;
15297;SDS011;7750;48.796;9.026;2023-05-19T12:08:06;5.33;;;3.10;;
15297;SDS011;7750;48.796;9.026;2023-05-19T12:13:07;9.70;;;4.57;;
15297;SDS011;7750;48.796;9.026;2023-05-19T12:18:08;10.37;;;3.70;;
15297;SDS011;7750;48.796;9.026;2023-05-19T12:23:10;7.37;;;3.90;;
15297;SDS011;7750;48.796;9.026;2023-05-19T12:28:14;9.90;;;4.30;;
15297;SDS011;7750;48.796;9.026;2023-05-19T12:33:15;10.57;;;4.20;;
15297;SDS011;7750;48.796;9.026;2023-05-19T12:38:17;13.03;;;4.37;;
15297;SDS011;7750;48.796;9.026;2023-05-19T12:43:19;8.87;;;4.07;;
15297;SDS011;7750;48.796;9.026;2023-05-19T12:48:21;10.80;;;3.43;;
15297;SDS011;7750;48.796;9.026;2023-05-19T12:53:24;7.30;;;4.53;;
15297;SDS011;7750;48.796;9.026;2023-05-19T12:58:26;7.63;;;4.17;;
15297;SDS011;7750;48.796;9.026;2023-05-19T13:03:27;11.13;;;4.07;;
15297;SDS011;7750;48.796;9.026;2023-05-19T13:08:27;5.40;;;3.50;;
15297;SDS011;7750;48.796;9.026;2023-05-19T13:13:28;12.67;;;5.80;;
15297;SDS011;7750;48.796;9.026;2023-05-19T13:18:29;8.67;;;3.80;;
15297;SDS011;7750;48.796;9.026;2023-05-19T13:23:31;10.20;;;4.20;;
15297;SDS011;7750;48.796;9.026;2023-05-19T13:28:32;7.20;;;3.13;;
15297;SDS011;7750;48.796;9.026;2023-05-19T13:33:32;6.97;;;3.73;;
15297;SDS011;7750;48.796;9.026;2023-05-19T13:38:33;6.80;;;3.33;;
15297;SDS011;7750;48.796;9.026;2023-05-19T13:43:33;6.97;;;3.60;;
15297;SDS011;7750;48.796;9.026;2023-05-19T13:48:34;6.63;;;3.77;;
15297;SDS011;7750;48.796;9.026;2023-05-19T13:53:35;12.63;;;4.87;;
15297;SDS011;7750;48.796;9.026;2023-05-19T13:58:35;15.23;;;4.10;;
15297;SDS011;7750;48.796;9.026;2023-05-19T14:03:36;6.70;;;3.83;;
15297;SDS011;7750;48.796;9.026;2023-05-19T14:08:36;9.40;;;4.27;;
15297;SDS011;7750;48.796;9.026;2023-05-19T14:13:37;9.87;;;4.80;;
15297;SDS011;7750;48.796;9.026;2023-05-19T14:18:38;19.00;;;7.43;;
15297;SDS011;7750;48.796;9.026;2023-05-19T14:23:38;11.43;;;4.77;;
15297;SDS011;7750;48.796;9.026;2023-05-19T14:28:39;9.33;;;3.83;;
15297;SDS011;7750;48.796;9.026;2023-05-19T14:33:40;6.80;;;3.73;;
15297;SDS011;7750;48.796;9.026;2023-05-19T14:38:41;6.50;;;3.50;;
15297;SDS011;7750;48.796;9.026;2023-05-19T14:43:41;7.03;;;3.90;;
15297;SDS011;7750;48.796;9.026;2023-05-19T14:48:42;6.50;;;3.60;;
15297;SDS011;7750;48.796;9.026;2023-05-19T14:53:43;7.80;;;3.80;;
15297;SDS011;7750;48.796;9.026;2023-05-19T14:58:43;9.63;;;4.80;;
15297;SDS011;7750;48.796;9.026;2023-05-19T15:03:44;8.10;;;3.57;;
15297;SDS011;7750;48.796;9.026;2023-05-19T15:08:45;10.10;;;3.70;;
15297;SDS011;7750;48.796;9.026;2023-05-19T15:13:45;6.60;;;3.50;;
15297;SDS011;7750;48.796;9.026;2023-05-19T15:18:46;6.40;;;3.40;;
15297;SDS011;7750;48.796;9.026;2023-05-19T15:23:46;7.73;;;3.20;;
15297;SDS011;7750;48.796;9.026;2023-05-19T15:28:47;15.60;;;3.87;;
15297;SDS011;7750;48.796;9.026;2023-05-19T15:33:47;10.17;;;4.03;;
15297;SDS011;7750;48.796;9.026;2023-05-19T15:38:48;7.70;;;3.43;;
15297;SDS011;7750;48.796;9.026;2023-05-19T15:43:49;9.10;;;4.73;;
15297;SDS011;7750;48.796;9.026;2023-05-19T15:48:49;5.67;;;2.90;;
15297;SDS011;7750;48.796;9.026;2023-05-19T15:53:50;6.90;;;3.90;;
15297;SDS011;7750;48.796;9.026;2023-05-19T15:58:51;6.50;;;4.07;;
15297;SDS011;7750;48.796;9.026;2023-05-19T16:03:51;7.07;;;4.00;;
15297;SDS011;7750;48.796;9.026;2023-05-19T16:08:52;10.33;;;3.77;;
15297;SDS011;7750;48.796;9.026;2023-05-19T16:13:53;6.90;;;3.33;;
15297;SDS011;7750;48.796;9.026;2023-05-19T16:18:53;6.87;;;3.30;;
15297;SDS011;7750;48.796;9.026;2023-05-19T16:23:54;9.83;;;3.80;;
15297;SDS011;7750;48.796;9.026;2023-05-19T16:28:55;6.40;;;3.93;;
15297;SDS011;7750;48.796;9.026;2023-05-19T16:33:55;10.17;;;4.37;;
15297;SDS011;7750;48.796;9.026;2023-05-19T16:38:56;6.80;;;3.73;;
15297;SDS011;7750;48.796;9.026;2023-05-19T16:43:56;4.57;;;3.17;;
15297;SDS011;7750;48.796;9.026;2023-05-19T16:48:57;6.57;;;3.20;;
15297;SDS011;7750;48.796;9.026;2023-05-19T16:53:58;5.33;;;3.10;;
15297;SDS011;7750;48.796;9.026;2023-05-19T16:58:59;5.30;;;3.37;;
15297;SDS011;7750;48.796;9.026;2023-05-19T17:03:59;6.63;;;3.70;;
15297;SDS011;7750;48.796;9.026;2023-05-19T17:09:00;4.70;;;2.90;;
15297;SDS011;7750;48.796;9.026;2023-05-19T17:14:01;5.33;;;3.33;;
15297;SDS011;7750;48.796;9.026;2023-05-19T17:19:06;8.10;;;3.50;;
15297;SDS011;7750;48.796;9.026;2023-05-19T17:24:07;6.10;;;3.40;;
15297;SDS011;7750;48.796;9.026;2023-05-19T17:29:07;7.43;;;2.97;;
15297;SDS011;7750;48.796;9.026;2023-05-19T17:34:11;4.90;;;3.17;;
15297;SDS011;7750;48.796;9.026;2023-05-19T17:39:11;8.33;;;3.23;;
15297;SDS011;7750;48.796;9.026;2023-05-19T17:44:12;5.27;;;3.50;;
15297;SDS011;7750;48.796;9.026;2023-05-19T17:49:12;6.30;;;3.40;;
15297;SDS011;7750;48.796;9.026;2023-05-19T17:54:14;5.43;;;2.63;;
15297;SDS011;7750;48.796;9.026;2023-05-19T17:59:15;6.57;;;3.07;;
15297;SDS011;7750;48.796;9.026;2023-05-19T18:04:16;7.87;;;3.03;;
15297;SDS011;7750;48.796;9.026;2023-05-19T18:09:17;5.50;;;3.13;;
15297;SDS011;7750;48.796;9.026;2023-05-19T18:14:18;5.40;;;3.60;;
15297;SDS011;7750;48.796;9.026;2023-05-19T18:19:19;5.57;;;2.83;;
15297;SDS011;7750;48.796;9.026;2023-05-19T18:24:20;5.57;;;3.10;;
15297;SDS011;7750;48.796;9.026;2023-05-19T18:29:21;4.60;;;2.87;;
15297;SDS011;7750;48.796;9.026;2023-05-19T18:34:21;8.20;;;3.23;;
15297;SDS011;7750;48.796;9.026;2023-05-19T18:39:22;5.60;;;3.37;;
15297;SDS011;7750;48.796;9.026;2023-05-19T18:44:23;4.20;;;3.00;;
15297;SDS011;7750;48.796;9.026;2023-05-19T18:49:23;4.90;;;2.83;;
15297;SDS011;7750;48.796;9.026;2023-05-19T18:54:24;5.03;;;3.20;;
15297;SDS011;7750;48.796;9.026;2023-05-19T18:59:25;8.10;;;3.73;;
15297;SDS011;7750;48.796;9.026;2023-05-19T19:04:25;5.80;;;4.40;;
15297;SDS011;7750;48.796;9.026;2023-05-19T19:09:26;7.90;;;5.30;;
15297;SDS011;7750;48.796;9.026;2023-05-19T19:14:27;8.53;;;4.83;;
15297;SDS011;7750;48.796;9.026;2023-05-19T19:19:27;9.43;;;3.77;;
15297;SDS011;7750;48.796;9.026;2023-05-19T19:24:29;4.43;;;2.93;;
15297;SDS011;7750;48.796;9.026;2023-05-19T19:29:34;5.77;;;4.07;;
15297;SDS011;7750;48.796;9.026;2023-05-19T19:34:34;7.83;;;3.77;;
15297;SDS011;7750;48.796;9.026;2023-05-19T19:39:35;5.57;;;4.27;;
15297;SDS011;7750;48.796;9.026;2023-05-19T19:44:37;9.57;;;3.60;;
15297;SDS011;7750;48.796;9.026;2023-05-19T19:49:37;4.60;;;3.70;;
15297;SDS011;7750;48.796;9.026;2023-05-19T19:54:38;6.27;;;3.90;;
15297;SDS011;7750;48.796;9.026;2023-05-19T19:59:39;11.47;;;5.00;;
15297;SDS011;7750;48.796;9.026;2023-05-19T20:04:39;7.47;;;4.60;;
15297;SDS011;7750;48.796;9.026;2023-05-19T20:09:40;9.07;;;5.30;;
15297;SDS011;7750;48.796;9.026;2023-05-19T20:14:41;7.00;;;4.70;;
15297;SDS011;7750;48.796;9.026;2023-05-19T20:19:42;7.83;;;4.60;;
15297;SDS011;7750;48.796;9.026;2023-05-19T20:24:42;8.73;;;5.57;;
15297;SDS011;7750;48.796;9.026;2023-05-19T20:29:43;8.30;;;5.70;;
15297;SDS011;7750;48.796;9.026;2023-05-19T20:34:45;9.30;;;5.17;;
15297;SDS011;7750;48.796;9.026;2023-05-19T20:39:46;7.03;;;4.70;;
15297;SDS011;7750;48.796;9.026;2023-05-19T20:44:47;8.37;;;5.00;;
15297;SDS011;7750;48.796;9.026;2023-05-19T20:49:48;7.47;;;5.27;;
15297;SDS011;7750;48.796;9.026;2023-05-19T20:54:48;7.57;;;5.63;;
15297;SDS011;7750;48.796;9.026;2023-05-19T20:59:49;9.90;;;5.93;;
15297;SDS011;7750;48.796;9.026;2023-05-19T21:04:50;8.20;;;5.70;;
15297;SDS011;7750;48.796;9.026;2023-05-19T21:09:51;7.60;;;5.40;;
15297;SDS011;7750;48.796;9.026;2023-05-19T21:14:53;7.53;;;5.17;;
15297;SDS011;7750;48.796;9.026;2023-05-19T21:19:53;7.87;;;5.47;;
15297;SDS011;7750;48.796;9.026;2023-05-19T21:24:56;7.63;;;6.10;;
15297;SDS011;7750;48.796;9.026;2023-05-19T21:29:57;8.43;;;5.20;;
15297;SDS011;7750;48.796;9.026;2023-05-19T21:34:58;6.90;;;4.30;;
15297;SDS011;7750;48.796;9.026;2023-05-19T21:40:00;5.57;;;4.47;;
15297;SDS011;7750;48.796;9.026;2023-05-19T21:45:00;18.23;;;13.77;;
15297;SDS011;7750;48.796;9.026;2023-05-19T21:50:01;12.03;;;8.53;;
15297;SDS011;7750;48.796;9.026;2023-05-19T21:55:03;9.90;;;7.47;;
15297;SDS011;7750;48.796;9.026;2023-05-19T22:00:05;15.90;;;10.80;;
15297;SDS011;7750;48.796;9.026;2023-05-19T22:05:06;7.63;;;5.37;;
15297;SDS011;7750;48.796;9.026;2023-05-19T22:10:08;6.90;;;4.37;;
15297;SDS011;7750;48.796;9.026;2023-05-19T22:15:09;13.97;;;11.00;;
15297;SDS011;7750;48.796;9.026;2023-05-19T22:20:12;17.20;;;12.07;;
15297;SDS011;7750;48.796;9.026;2023-05-19T22:25:12;16.30;;;10.20;;
15297;SDS011;7750;48.796;9.026;2023-05-19T22:30:13;13.20;;;10.33;;
15297;SDS011;7750;48.796;9.026;2023-05-19T22:35:14;7.67;;;5.93;;
15297;SDS011;7750;48.796;9.026;2023-05-19T22:40:15;6.33;;;4.30;;
15297;SDS011;7750;48.796;9.026;2023-05-19T22:45:16;5.30;;;3.30;;
15297;SDS011;7750;48.796;9.026;2023-05-19T22:50:17;6.63;;;3.17;;
15297;SDS011;7750;48.796;9.026;2023-05-19T22:55:19;5.53;;;3.30;;
15297;SDS011;7750;48.796;9.026;2023-05-19T23:00:19;5.60;;;3.73;;
15297;SDS011;7750;48.796;9.026;2023-05-19T23:05:20;8.90;;;4.30;;
15297;SDS011;7750;48.796;9.026;2023-05-19T23:10:21;9.40;;;3.90;;
15297;SDS011;7750;48.796;9.026;2023-05-19T23:15:21;6.07;;;3.67;;
15297;SDS011;7750;48.796;9.026;2023-05-19T23:20:22;4.50;;;3.10;;
15297;SDS011;7750;48.796;9.026;2023-05-19T23:25:23;6.83;;;3.20;;
15297;SDS011;7750;48.796;9.026;2023-05-19T23:30:24;3.90;;;2.77;;
15297;SDS011;7750;48.796;9.026;2023-05-19T23:35:24;5.87;;;3.27;;
15297;SDS011;7750;48.796;9.026;2023-05-19T23:40:25;4.23;;;3.17;;
15297;SDS011;7750;48.796;9.026;2023-05-19T23:45:25;8.60;;;3.60;;
15297;SDS011;7750;48.796;9.026;2023-05-19T23:50:26;4.00;;;3.03;;
15297;SDS011;7750;48.796;9.026;2023-05-19T23:55:27;5.87;;;2.77;;
